createdAt,value
2023-05-17T00:01:58.266Z,2.00
2023-05-17T00:04:29.040Z,1.77
2023-05-17T00:06:59.645Z,2.20
2023-05-17T00:09:30.374Z,2.07
2023-05-17T00:12:01.163Z,1.70
2023-05-17T00:14:34.298Z,1.97
2023-05-17T00:17:04.943Z,3.90
2023-05-17T00:19:35.788Z,2.63
2023-05-17T00:22:06.659Z,3.00
2023-05-17T00:24:37.279Z,2.80
2023-05-17T00:27:08.511Z,2.33
2023-05-17T00:29:41.774Z,2.10
2023-05-17T00:32:14.132Z,1.83
2023-05-17T00:34:44.715Z,2.37
2023-05-17T00:37:15.547Z,1.60
2023-05-17T00:39:46.222Z,3.13
2023-05-17T00:42:17.585Z,2.57
2023-05-17T00:44:50.716Z,2.50
2023-05-17T00:47:21.287Z,1.73
2023-05-17T00:49:51.909Z,1.83
2023-05-17T00:52:22.511Z,1.83
2023-05-17T00:54:54.937Z,1.70
2023-05-17T00:57:25.908Z,1.93
2023-05-17T00:59:59.558Z,1.90
2023-05-17T01:02:30.228Z,1.50
2023-05-17T01:05:01.473Z,1.53
2023-05-17T01:07:32.230Z,2.00
2023-05-17T01:10:03.238Z,1.63
2023-05-17T01:12:48.829Z,1.63
2023-05-17T01:15:26.232Z,1.73
2023-05-17T01:18:10.142Z,1.90
2023-05-17T01:20:43.819Z,1.97
2023-05-17T01:23:27.660Z,1.90
2023-05-17T01:26:07.572Z,1.93
2023-05-17T01:28:41.948Z,1.50
2023-05-17T01:31:14.142Z,1.50
2023-05-17T01:33:45.009Z,1.80
2023-05-17T01:36:15.654Z,2.40
2023-05-17T01:38:46.177Z,1.60
2023-05-17T01:41:24.105Z,1.63
2023-05-17T01:44:05.885Z,1.80
2023-05-17T01:46:42.324Z,1.57
2023-05-17T01:49:19.037Z,1.63
2023-05-17T01:51:52.122Z,1.67
2023-05-17T01:54:27.640Z,2.07
2023-05-17T01:57:03.879Z,1.77
2023-05-17T01:59:41.013Z,1.63
2023-05-17T02:02:11.753Z,1.50
2023-05-17T02:04:42.297Z,1.60
2023-05-17T02:07:12.832Z,1.80
2023-05-17T02:09:43.371Z,1.90
2023-05-17T02:12:14.204Z,1.90
2023-05-17T02:14:50.102Z,2.40
2023-05-17T02:17:20.882Z,2.27
2023-05-17T02:19:51.400Z,2.77
2023-05-17T02:22:21.964Z,2.80
2023-05-17T02:24:52.591Z,2.53
2023-05-17T02:27:23.155Z,2.83
2023-05-17T02:29:56.267Z,2.83
2023-05-17T02:32:27.189Z,3.50
2023-05-17T02:34:57.819Z,3.93
2023-05-17T02:37:28.549Z,3.23
2023-05-17T02:39:59.138Z,2.87
2023-05-17T02:42:30.147Z,3.17
2023-05-17T02:45:03.401Z,2.80
2023-05-17T02:47:34.206Z,3.83
2023-05-17T02:50:05.006Z,3.03
2023-05-17T02:52:36.413Z,4.00
2023-05-17T02:55:08.753Z,2.73
2023-05-17T02:57:39.319Z,2.97
2023-05-17T03:00:13.419Z,2.53
2023-05-17T03:02:44.083Z,2.67
2023-05-17T03:05:14.975Z,2.73
2023-05-17T03:07:50.759Z,2.87
2023-05-17T03:10:21.652Z,3.23
2023-05-17T03:12:52.456Z,3.30
2023-05-17T03:15:30.175Z,3.00
2023-05-17T03:18:01.180Z,2.93
2023-05-17T03:20:32.676Z,2.80
2023-05-17T03:23:03.534Z,2.83
2023-05-17T03:25:34.671Z,2.57
2023-05-17T03:28:06.149Z,3.33
2023-05-17T03:30:39.565Z,3.30
2023-05-17T03:33:10.604Z,3.23
2023-05-17T03:35:41.404Z,4.17
2023-05-17T03:38:12.280Z,3.20
2023-05-17T03:40:43.636Z,3.40
2023-05-17T03:43:14.224Z,3.80
2023-05-17T03:45:47.717Z,3.43
2023-05-17T03:48:21.447Z,3.37
2023-05-17T03:50:52.587Z,2.77
2023-05-17T03:53:23.304Z,3.87
2023-05-17T03:55:53.990Z,3.17
2023-05-17T03:58:25.088Z,4.73
2023-05-17T04:00:58.496Z,3.93
2023-05-17T04:03:29.697Z,3.50
2023-05-17T04:06:06.463Z,3.50
2023-05-17T04:08:38.322Z,3.33
2023-05-17T04:11:14.119Z,3.37
2023-05-17T04:13:45.891Z,4.43
2023-05-17T04:16:19.137Z,24.80
2023-05-17T04:18:53.024Z,15.33
2023-05-17T04:21:24.089Z,4.50
2023-05-17T04:23:55.400Z,3.73
2023-05-17T04:26:27.081Z,5.00
2023-05-17T04:28:57.692Z,4.00
2023-05-17T04:31:30.901Z,4.20
2023-05-17T04:34:01.645Z,4.30
2023-05-17T04:36:32.848Z,5.10
2023-05-17T04:39:05.927Z,4.70
2023-05-17T04:41:36.730Z,5.30
2023-05-17T04:44:10.558Z,4.20
2023-05-17T04:46:44.212Z,4.77
2023-05-17T04:49:16.565Z,5.20
2023-05-17T04:51:47.421Z,5.00
2023-05-17T04:54:18.136Z,4.53
2023-05-17T04:56:49.150Z,4.17
2023-05-17T04:59:27.736Z,4.27
2023-05-17T05:02:01.248Z,4.07
2023-05-17T05:04:31.963Z,4.00
2023-05-17T05:07:02.727Z,3.73
2023-05-17T05:09:33.509Z,3.30
2023-05-17T05:12:04.276Z,3.07
2023-05-17T05:14:35.798Z,4.40
2023-05-17T05:17:09.802Z,3.30
2023-05-17T05:19:41.845Z,4.30
2023-05-17T05:22:12.663Z,4.53
2023-05-17T05:24:44.321Z,4.70
2023-05-17T05:27:14.960Z,4.57
2023-05-17T05:29:46.458Z,4.60
2023-05-17T05:32:19.822Z,3.80
2023-05-17T05:34:50.683Z,3.13
2023-05-17T05:37:21.876Z,3.77
2023-05-17T05:39:52.551Z,3.40
2023-05-17T05:42:23.748Z,4.00
2023-05-17T05:44:54.488Z,3.37
2023-05-17T05:47:29.499Z,3.73
2023-05-17T05:50:00.288Z,3.03
2023-05-17T05:52:31.111Z,3.70
2023-05-17T05:55:01.706Z,3.63
2023-05-17T05:57:33.133Z,3.63
2023-05-17T06:00:05.638Z,2.70
2023-05-17T06:02:46.556Z,3.10
2023-05-17T06:05:17.178Z,2.83
2023-05-17T06:07:47.872Z,2.60
2023-05-17T06:10:18.439Z,2.43
2023-05-17T06:12:49.023Z,3.57
2023-05-17T06:15:19.768Z,2.60
2023-05-17T06:17:53.176Z,3.63
2023-05-17T06:20:23.981Z,2.47
2023-05-17T06:22:54.638Z,3.20
2023-05-17T06:25:25.218Z,3.40
2023-05-17T06:27:55.782Z,2.47
2023-05-17T06:30:28.075Z,3.10
2023-05-17T06:33:01.538Z,2.70
2023-05-17T06:35:43.801Z,2.80
2023-05-17T06:38:22.834Z,3.30
2023-05-17T06:40:56.010Z,3.10
2023-05-17T06:43:27.288Z,3.30
2023-05-17T06:45:57.892Z,3.57
2023-05-17T06:48:31.673Z,2.90
2023-05-17T06:51:02.493Z,3.23
2023-05-17T06:53:33.041Z,3.33
2023-05-17T06:56:03.804Z,2.83
2023-05-17T06:58:35.803Z,2.50
2023-05-17T07:01:06.483Z,2.80
2023-05-17T07:03:39.712Z,3.33
2023-05-17T07:06:10.870Z,3.40
2023-05-17T07:08:41.605Z,3.40
2023-05-17T07:11:12.125Z,3.10
2023-05-17T07:13:42.798Z,3.07
2023-05-17T07:16:13.485Z,2.70
2023-05-17T07:18:46.726Z,3.87
2023-05-17T07:21:17.355Z,3.30
2023-05-17T07:23:47.979Z,3.47
2023-05-17T07:26:18.579Z,3.13
2023-05-17T07:28:49.179Z,3.50
2023-05-17T07:31:19.803Z,3.70
2023-05-17T07:33:53.061Z,2.90
2023-05-17T07:36:23.826Z,3.37
2023-05-17T07:38:54.466Z,3.33
2023-05-17T07:41:27.267Z,4.20
2023-05-17T07:43:57.873Z,3.03
2023-05-17T07:46:28.494Z,3.03
2023-05-17T07:49:01.854Z,4.27
2023-05-17T07:51:32.573Z,3.90
2023-05-17T07:54:03.728Z,3.63
2023-05-17T07:56:34.388Z,3.53
2023-05-17T07:59:04.960Z,4.30
2023-05-17T08:01:35.570Z,3.83
2023-05-17T08:04:08.855Z,4.17
2023-05-17T08:06:39.423Z,3.93
2023-05-17T08:09:11.221Z,3.20
2023-05-17T08:11:46.135Z,5.83
2023-05-17T08:14:17.448Z,3.57
2023-05-17T08:16:52.040Z,3.40
2023-05-17T08:19:25.349Z,4.03
2023-05-17T08:21:57.135Z,3.60
2023-05-17T08:24:27.722Z,4.30
2023-05-17T08:26:58.680Z,3.50
2023-05-17T08:29:29.228Z,3.87
2023-05-17T08:31:59.870Z,3.67
2023-05-17T08:34:33.113Z,4.50
2023-05-17T08:37:03.830Z,4.30
2023-05-17T08:39:34.564Z,3.90
2023-05-17T08:42:05.514Z,4.80
2023-05-17T08:44:36.612Z,4.77
2023-05-17T08:47:09.520Z,4.80
2023-05-17T08:49:46.303Z,3.87
2023-05-17T08:52:18.478Z,5.77
2023-05-17T08:54:49.068Z,4.60
2023-05-17T08:57:20.632Z,4.60
2023-05-17T08:59:52.354Z,4.90
2023-05-17T09:02:23.665Z,3.93
2023-05-17T09:04:57.749Z,4.30
2023-05-17T09:07:28.655Z,4.60
2023-05-17T09:09:59.270Z,4.47
2023-05-17T09:12:29.979Z,3.87
2023-05-17T09:15:16.851Z,4.20
2023-05-17T09:17:54.183Z,3.80
2023-05-17T09:20:34.546Z,3.90
2023-05-17T09:23:05.677Z,4.00
2023-05-17T09:25:37.130Z,4.20
2023-05-17T09:28:10.119Z,4.33
2023-05-17T09:30:42.436Z,4.17
2023-05-17T09:33:17.666Z,4.10
2023-05-17T09:35:52.062Z,4.30
2023-05-17T09:38:28.373Z,3.20
2023-05-17T09:40:59.130Z,3.90
2023-05-17T09:43:29.764Z,3.43
2023-05-17T09:46:01.365Z,5.20
2023-05-17T09:48:32.566Z,4.10
2023-05-17T09:51:05.855Z,5.07
2023-05-17T09:53:40.233Z,3.47
2023-05-17T09:56:13.499Z,3.67
2023-05-17T09:58:45.432Z,3.80
2023-05-17T10:01:16.339Z,4.47
2023-05-17T10:03:47.187Z,3.73
2023-05-17T10:06:38.492Z,3.80
2023-05-17T10:09:16.229Z,4.70
2023-05-17T10:11:49.311Z,5.23
2023-05-17T10:14:26.267Z,9.20
2023-05-17T10:16:58.036Z,3.80
2023-05-17T10:19:29.482Z,3.50
2023-05-17T10:22:18.720Z,3.70
2023-05-17T10:24:54.135Z,4.30
2023-05-17T10:27:24.846Z,3.03
2023-05-17T10:29:56.604Z,3.70
2023-05-17T10:32:30.104Z,3.00
2023-05-17T10:35:11.556Z,3.67
2023-05-17T10:37:45.958Z,3.30
2023-05-17T10:40:20.440Z,3.77
2023-05-17T10:42:54.374Z,3.97
2023-05-17T10:45:27.826Z,3.67
2023-05-17T10:47:59.744Z,3.67
2023-05-17T10:50:31.965Z,4.60
2023-05-17T10:53:05.963Z,3.00
2023-05-17T10:55:42.272Z,3.93
2023-05-17T10:58:22.917Z,3.87
2023-05-17T11:00:55.790Z,3.43
2023-05-17T11:03:34.166Z,3.80
2023-05-17T11:06:25.219Z,3.77
2023-05-17T11:09:19.022Z,4.13
2023-05-17T11:12:08.441Z,3.40
2023-05-17T11:14:52.400Z,3.97
2023-05-17T11:17:24.311Z,4.33
2023-05-17T11:20:07.061Z,4.60
2023-05-17T11:22:43.034Z,8.40
2023-05-17T11:25:17.629Z,6.47
2023-05-17T11:27:50.190Z,4.90
2023-05-17T11:30:24.634Z,4.70
2023-05-17T11:32:56.667Z,4.13
2023-05-17T11:35:31.320Z,4.70
2023-05-17T11:38:17.875Z,4.60
2023-05-17T11:40:55.359Z,4.07
2023-05-17T11:43:28.440Z,4.30
2023-05-17T11:46:01.619Z,3.33
2023-05-17T11:48:34.188Z,4.07
2023-05-17T11:51:05.382Z,3.90
2023-05-17T11:53:36.403Z,4.00
2023-05-17T11:56:11.696Z,3.20
2023-05-17T11:58:44.142Z,5.17
2023-05-17T12:01:14.775Z,3.77
2023-05-17T12:03:47.550Z,4.70
2023-05-17T12:06:20.151Z,3.70
2023-05-17T12:08:51.053Z,4.30
2023-05-17T12:11:24.672Z,3.77
2023-05-17T12:13:55.224Z,3.73
2023-05-17T12:16:26.684Z,4.23
2023-05-17T12:18:58.664Z,3.63
2023-05-17T12:21:29.412Z,3.90
2023-05-17T12:24:00.322Z,4.10
2023-05-17T12:26:33.458Z,3.60
2023-05-17T12:29:04.922Z,3.80
2023-05-17T12:31:37.845Z,3.77
2023-05-17T12:34:09.684Z,3.40
2023-05-17T12:36:40.815Z,4.77
2023-05-17T12:39:12.679Z,3.67
2023-05-17T12:41:46.763Z,3.63
2023-05-17T12:44:17.422Z,4.13
2023-05-17T12:46:53.596Z,4.00
2023-05-17T12:49:24.845Z,3.93
2023-05-17T12:51:55.449Z,3.93
2023-05-17T12:54:31.341Z,4.20
2023-05-17T12:57:15.000Z,3.67
2023-05-17T12:59:52.593Z,4.03
2023-05-17T13:02:24.126Z,3.73
2023-05-17T13:04:54.892Z,3.50
2023-05-17T13:07:26.596Z,3.50
2023-05-17T13:09:57.165Z,4.23
2023-05-17T13:12:30.344Z,4.20
2023-05-17T13:15:00.954Z,3.80
2023-05-17T13:17:45.030Z,3.63
2023-05-17T13:20:16.249Z,4.40
2023-05-17T13:22:49.625Z,3.67
2023-05-17T13:25:20.461Z,3.97
2023-05-17T13:27:55.597Z,4.73
2023-05-17T13:30:26.619Z,4.13
2023-05-17T13:32:57.416Z,3.10
2023-05-17T13:35:28.213Z,3.73
2023-05-17T13:37:58.765Z,3.87
2023-05-17T13:40:29.450Z,3.50
2023-05-17T13:43:03.413Z,4.30
2023-05-17T13:45:33.989Z,3.97
2023-05-17T13:48:04.539Z,4.87
2023-05-17T13:50:35.174Z,3.50
2023-05-17T13:53:06.443Z,4.67
2023-05-17T13:55:39.242Z,3.57
2023-05-17T13:58:12.332Z,3.60
2023-05-17T14:00:44.753Z,3.97
2023-05-17T14:03:16.053Z,4.00
2023-05-17T14:05:49.837Z,4.00
2023-05-17T14:08:20.707Z,4.33
2023-05-17T14:10:51.376Z,4.00
2023-05-17T14:13:24.509Z,3.80
2023-05-17T14:15:55.026Z,4.50
2023-05-17T14:18:25.945Z,3.90
2023-05-17T14:20:56.553Z,4.10
2023-05-17T14:23:27.077Z,3.37
2023-05-17T14:25:57.887Z,4.17
2023-05-17T14:28:31.195Z,3.80
2023-05-17T14:31:01.723Z,4.00
2023-05-17T14:33:32.326Z,4.40
2023-05-17T14:36:04.171Z,4.30
2023-05-17T14:38:35.162Z,3.70
2023-05-17T14:41:06.892Z,4.03
2023-05-17T14:43:39.996Z,3.90
2023-05-17T14:46:10.549Z,4.37
2023-05-17T14:48:41.173Z,4.33
2023-05-17T14:51:11.907Z,4.50
2023-05-17T14:53:43.166Z,4.57
2023-05-17T14:56:15.354Z,4.00
2023-05-17T14:58:48.564Z,4.00
2023-05-17T15:01:19.232Z,3.83
2023-05-17T15:03:49.890Z,4.20
2023-05-17T15:06:24.829Z,4.00
2023-05-17T15:08:55.616Z,3.93
2023-05-17T15:11:26.196Z,4.37
2023-05-17T15:13:59.467Z,4.43
2023-05-17T15:16:30.297Z,3.50
2023-05-17T15:19:01.026Z,3.80
2023-05-17T15:21:31.698Z,4.07
2023-05-17T15:24:02.778Z,4.10
2023-05-17T15:26:33.467Z,2.90
2023-05-17T15:29:07.045Z,4.43
2023-05-17T15:31:37.623Z,3.53
2023-05-17T15:34:08.873Z,3.57
2023-05-17T15:36:39.549Z,4.10
2023-05-17T15:39:11.263Z,4.40
2023-05-17T15:41:41.921Z,5.23
2023-05-17T15:44:15.115Z,4.63
2023-05-17T15:46:46.444Z,4.47
2023-05-17T15:49:17.128Z,4.53
2023-05-17T15:51:47.793Z,4.00
2023-05-17T15:54:18.504Z,4.50
2023-05-17T15:56:49.123Z,3.80
2023-05-17T15:59:22.297Z,3.53
2023-05-17T16:01:53.024Z,4.23
2023-05-17T16:04:23.686Z,4.20
2023-05-17T16:06:54.325Z,3.83
2023-05-17T16:09:25.205Z,3.80
2023-05-17T16:11:55.836Z,3.67
2023-05-17T16:14:28.982Z,3.80
2023-05-17T16:16:59.546Z,3.60
2023-05-17T16:19:34.123Z,3.70
2023-05-17T16:22:05.484Z,3.60
2023-05-17T16:24:36.505Z,3.63
2023-05-17T16:27:08.114Z,3.97
2023-05-17T16:29:41.625Z,3.77
2023-05-17T16:32:12.187Z,4.30
2023-05-17T16:34:42.935Z,4.40
2023-05-17T16:37:13.828Z,3.40
2023-05-17T16:39:44.589Z,3.43
2023-05-17T16:42:15.308Z,4.40
2023-05-17T16:44:48.530Z,4.93
2023-05-17T16:47:23.073Z,4.73
2023-05-17T16:49:53.752Z,3.87
2023-05-17T16:52:24.651Z,4.90
2023-05-17T16:55:01.625Z,4.10
2023-05-17T16:57:33.089Z,4.80
2023-05-17T17:00:06.721Z,4.97
2023-05-17T17:02:37.380Z,4.70
2023-05-17T17:05:08.537Z,4.63
2023-05-17T17:07:39.113Z,4.80
2023-05-17T17:10:11.073Z,4.37
2023-05-17T17:12:41.817Z,3.63
2023-05-17T17:15:15.734Z,4.30
2023-05-17T17:17:46.475Z,4.10
2023-05-17T17:20:19.913Z,4.63
2023-05-17T17:22:50.519Z,4.20
2023-05-17T17:25:24.827Z,4.07
2023-05-17T17:27:55.521Z,4.13
2023-05-17T17:30:28.858Z,4.00
2023-05-17T17:32:59.601Z,3.47
2023-05-17T17:35:30.393Z,4.00
2023-05-17T17:38:02.268Z,4.13
2023-05-17T17:40:32.991Z,4.40
2023-05-17T17:43:03.736Z,4.33
2023-05-17T17:45:36.982Z,4.57
2023-05-17T17:48:07.845Z,5.20
2023-05-17T17:50:38.457Z,5.20
2023-05-17T17:53:09.105Z,3.70
2023-05-17T17:55:39.746Z,4.83
2023-05-17T17:58:10.331Z,4.50
2023-05-17T18:00:43.493Z,4.10
2023-05-17T18:03:14.081Z,4.77
2023-05-17T18:05:45.004Z,4.90
2023-05-17T18:08:15.873Z,4.33
2023-05-17T18:10:46.456Z,3.77
2023-05-17T18:13:17.295Z,3.73
2023-05-17T18:15:50.573Z,4.20
2023-05-17T18:18:21.161Z,3.80
2023-05-17T18:20:51.850Z,5.43
2023-05-17T18:23:22.460Z,4.40
2023-05-17T18:25:53.182Z,5.23
2023-05-17T18:28:33.761Z,4.33
2023-05-17T18:31:15.106Z,5.20
2023-05-17T18:33:45.684Z,3.70
2023-05-17T18:36:16.302Z,4.27
2023-05-17T18:38:46.952Z,4.30
2023-05-17T18:41:17.561Z,4.80
2023-05-17T18:43:48.185Z,4.50
2023-05-17T18:46:22.020Z,4.47
2023-05-17T18:48:52.860Z,4.20
2023-05-17T18:51:23.538Z,4.50
2023-05-17T18:53:54.159Z,5.30
2023-05-17T18:56:25.383Z,5.00
2023-05-17T18:58:56.465Z,5.30
2023-05-17T19:01:30.137Z,4.90
2023-05-17T19:04:01.080Z,4.90
2023-05-17T19:06:31.962Z,5.27
2023-05-17T19:09:02.835Z,4.23
2023-05-17T19:11:33.519Z,4.63
2023-05-17T19:14:04.482Z,4.80
2023-05-17T19:16:37.656Z,4.77
2023-05-17T19:19:08.379Z,4.20
2023-05-17T19:21:39.078Z,4.27
2023-05-17T19:24:10.206Z,5.07
2023-05-17T19:26:40.780Z,4.43
2023-05-17T19:29:11.513Z,4.70
2023-05-17T19:31:44.754Z,5.90
2023-05-17T19:34:15.373Z,5.13
2023-05-17T19:36:46.234Z,6.27
2023-05-17T19:39:18.730Z,5.80
2023-05-17T19:41:49.308Z,6.63
2023-05-17T19:44:20.034Z,6.03
2023-05-17T19:46:53.272Z,5.63
2023-05-17T19:49:23.931Z,5.77
2023-05-17T19:51:54.941Z,6.40
2023-05-17T19:54:25.617Z,5.90
2023-05-17T19:56:56.244Z,7.17
2023-05-17T19:59:27.113Z,6.00
2023-05-17T20:02:01.114Z,5.80
2023-05-17T20:04:31.765Z,6.20
2023-05-17T20:07:02.361Z,6.40
2023-05-17T20:09:32.945Z,6.23
2023-05-17T20:12:03.601Z,6.40
2023-05-17T20:14:34.283Z,5.77
2023-05-17T20:17:07.686Z,6.07
2023-05-17T20:19:38.746Z,7.57
2023-05-17T20:22:09.670Z,6.33
2023-05-17T20:24:40.555Z,6.77
2023-05-17T20:27:11.177Z,5.30
2023-05-17T20:29:42.630Z,6.17
2023-05-17T20:32:15.828Z,6.37
2023-05-17T20:34:46.580Z,8.63
2023-05-17T20:37:17.182Z,6.90
2023-05-17T20:39:48.077Z,6.33
2023-05-17T20:42:20.536Z,7.40
2023-05-17T20:44:53.869Z,7.50
2023-05-17T20:47:29.307Z,5.90
2023-05-17T20:49:59.953Z,6.30
2023-05-17T20:52:38.694Z,6.50
2023-05-17T20:55:11.576Z,6.60
2023-05-17T20:57:42.292Z,7.10
2023-05-17T21:00:17.078Z,5.80
2023-05-17T21:02:50.430Z,6.90
2023-05-17T21:05:22.059Z,7.60
2023-05-17T21:07:52.775Z,5.90
2023-05-17T21:10:23.376Z,6.90
2023-05-17T21:12:53.995Z,8.00
2023-05-17T21:15:25.233Z,7.10
2023-05-17T21:17:58.482Z,7.20
2023-05-17T21:20:29.125Z,5.97
2023-05-17T21:22:59.678Z,7.77
2023-05-17T21:25:30.356Z,7.20
2023-05-17T21:28:01.111Z,7.03
2023-05-17T21:30:31.900Z,9.20
2023-05-17T21:33:05.755Z,6.90
2023-05-17T21:35:36.514Z,8.93
2023-05-17T21:38:07.153Z,6.53
2023-05-17T21:40:37.759Z,7.37
2023-05-17T21:43:09.948Z,8.30
2023-05-17T21:45:41.343Z,7.50
2023-05-17T21:48:14.651Z,7.63
2023-05-17T21:50:45.304Z,6.67
2023-05-17T21:53:16.261Z,8.47
2023-05-17T21:58:21.894Z,7.03
2023-05-17T22:00:52.698Z,8.17
2023-05-17T22:03:26.097Z,7.27
2023-05-17T22:05:56.721Z,8.40
2023-05-17T22:08:27.338Z,6.83
2023-05-17T22:10:57.882Z,7.93
2023-05-17T22:13:29.272Z,8.30
2023-05-17T22:16:00.333Z,6.70
2023-05-17T22:18:34.165Z,8.33
2023-05-17T22:21:05.056Z,8.57
2023-05-17T22:23:35.694Z,6.50
2023-05-17T22:26:06.318Z,10.07
2023-05-17T22:28:37.323Z,8.33
2023-05-17T22:31:08.870Z,9.10
2023-05-17T22:33:42.054Z,7.90
2023-05-17T22:36:14.303Z,8.20
2023-05-17T22:38:45.381Z,8.30
2023-05-17T22:41:16.469Z,7.30
2023-05-17T22:43:47.046Z,7.60
2023-05-17T22:46:18.564Z,7.53
2023-05-17T22:48:52.892Z,8.40
2023-05-17T22:51:23.475Z,8.10
2023-05-17T22:53:54.245Z,8.27
2023-05-17T22:56:24.888Z,8.50
2023-05-17T22:58:55.544Z,8.50
2023-05-17T23:01:26.369Z,7.50
2023-05-17T23:03:59.768Z,9.33
2023-05-17T23:06:34.292Z,8.40
2023-05-17T23:09:06.277Z,8.97
2023-05-17T23:11:41.112Z,8.87
2023-05-17T23:14:11.727Z,7.20
2023-05-17T23:16:42.335Z,9.60
2023-05-17T23:19:17.292Z,8.00
2023-05-17T23:21:49.201Z,7.87
2023-05-17T23:24:20.342Z,9.40
2023-05-17T23:26:51.042Z,8.67
2023-05-17T23:29:21.770Z,8.93
2023-05-17T23:31:52.485Z,9.53
2023-05-17T23:34:25.673Z,8.77
2023-05-17T23:36:56.563Z,7.67
2023-05-17T23:39:27.151Z,8.63
2023-05-17T23:41:58.370Z,8.30
2023-05-17T23:44:28.979Z,8.10
2023-05-17T23:47:00.200Z,8.80
2023-05-17T23:49:33.324Z,8.53
2023-05-17T23:52:04.281Z,9.00
2023-05-17T23:54:35.109Z,9.00
2023-05-17T23:57:05.967Z,8.87
2023-05-17T23:59:37.628Z,9.10
